sensor_id;sensor_type;location;lat;lon;timestamp;pressure;altitude;pressure_sealevel;temperature;humidity
63556;BME280;49700;48.072;7.800;2023-04-29T00:00:04;99249.91;;;16.19;nan
63556;BME280;49700;48.072;7.800;2023-04-29T00:02:37;99251.88;;;16.17;nan
63556;BME280;49700;48.072;7.800;2023-04-29T00:05:02;99257.34;;;16.15;nan
63556;BME280;49700;48.072;7.800;2023-04-29T00:07:29;99257.47;;;16.14;nan
63556;BME280;49700;48.072;7.800;2023-04-29T00:09:57;99260.41;;;16.11;nan
63556;BME280;49700;48.072;7.800;2023-04-29T00:12:22;99249.09;;;16.09;nan
63556;BME280;49700;48.072;7.800;2023-04-29T00:14:48;99250.63;;;16.11;nan
63556;BME280;49700;48.072;7.800;2023-04-29T00:17:13;99251.31;;;16.13;nan
63556;BME280;49700;48.072;7.800;2023-04-29T00:19:40;99243.38;;;16.13;nan
63556;BME280;49700;48.072;7.800;2023-04-29T00:22:05;99250.50;;;16.13;nan
63556;BME280;49700;48.072;7.800;2023-04-29T00:24:31;99251.91;;;16.07;nan
63556;BME280;49700;48.072;7.800;2023-04-29T00:26:56;99255.38;;;15.98;nan
63556;BME280;49700;48.072;7.800;2023-04-29T00:29:22;99258.19;;;15.87;nan
63556;BME280;49700;48.072;7.800;2023-04-29T00:31:48;99251.38;;;15.75;nan
63556;BME280;49700;48.072;7.800;2023-04-29T00:34:13;99241.06;;;15.72;nan
63556;BME280;49700;48.072;7.800;2023-04-29T00:36:39;99239.38;;;15.70;nan
63556;BME280;49700;48.072;7.800;2023-04-29T00:39:04;99241.06;;;15.72;nan
63556;BME280;49700;48.072;7.800;2023-04-29T00:41:30;99239.09;;;15.74;nan
63556;BME280;49700;48.072;7.800;2023-04-29T00:43:56;99229.31;;;15.74;nan
63556;BME280;49700;48.072;7.800;2023-04-29T00:46:22;99233.94;;;15.72;nan
63556;BME280;49700;48.072;7.800;2023-04-29T00:48:48;99239.63;;;15.67;nan
63556;BME280;49700;48.072;7.800;2023-04-29T00:51:15;99229.84;;;15.68;nan
63556;BME280;49700;48.072;7.800;2023-04-29T00:53:41;99242.00;;;15.70;nan
63556;BME280;49700;48.072;7.800;2023-04-29T00:56:07;99231.97;;;15.74;nan
63556;BME280;49700;48.072;7.800;2023-04-29T00:58:34;99242.44;;;15.76;nan
63556;BME280;49700;48.072;7.800;2023-04-29T01:01:01;99237.97;;;15.76;nan
63556;BME280;49700;48.072;7.800;2023-04-29T01:03:29;99237.97;;;15.76;nan
63556;BME280;49700;48.072;7.800;2023-04-29T01:06:07;99235.19;;;15.78;nan
63556;BME280;49700;48.072;7.800;2023-04-29T01:08:51;99242.16;;;15.79;nan
63556;BME280;49700;48.072;7.800;2023-04-29T01:11:29;99247.72;;;15.76;nan
63556;BME280;49700;48.072;7.800;2023-04-29T01:13:59;99251.50;;;15.73;nan
63556;BME280;49700;48.072;7.800;2023-04-29T01:16:33;99246.59;;;15.68;nan
63556;BME280;49700;48.072;7.800;2023-04-29T01:19:15;99247.13;;;15.62;nan
63556;BME280;49700;48.072;7.800;2023-04-29T01:21:47;99251.59;;;15.62;nan
63556;BME280;49700;48.072;7.800;2023-04-29T01:24:15;99237.38;;;15.63;nan
63556;BME280;49700;48.072;7.800;2023-04-29T01:26:50;99238.09;;;15.65;nan
63556;BME280;49700;48.072;7.800;2023-04-29T01:29:43;99239.63;;;15.67;nan
63556;BME280;49700;48.072;7.800;2023-04-29T01:32:20;99235.16;;;15.68;nan
63556;BME280;49700;48.072;7.800;2023-04-29T01:34:54;99236.16;;;15.67;nan
63556;BME280;49700;48.072;7.800;2023-04-29T01:37:34;99243.25;;;15.66;nan
63556;BME280;49700;48.072;7.800;2023-04-29T01:40:19;99243.25;;;15.66;nan
63556;BME280;49700;48.072;7.800;2023-04-29T01:43:01;99231.97;;;15.64;nan
63556;BME280;49700;48.072;7.800;2023-04-29T01:45:33;99240.19;;;15.61;nan
63556;BME280;49700;48.072;7.800;2023-04-29T01:47:59;99241.41;;;15.57;nan
63556;BME280;49700;48.072;7.800;2023-04-29T01:50:26;99230.41;;;15.52;nan
63556;BME280;49700;48.072;7.800;2023-04-29T01:52:52;99229.97;;;15.47;nan
63556;BME280;49700;48.072;7.800;2023-04-29T01:55:18;99233.75;;;15.44;nan
63556;BME280;49700;48.072;7.800;2023-04-29T01:57:54;99228.59;;;15.43;nan
63556;BME280;49700;48.072;7.800;2023-04-29T02:00:43;99233.19;;;15.41;nan
63556;BME280;49700;48.072;7.800;2023-04-29T02:03:08;99226.22;;;15.40;nan
63556;BME280;49700;48.072;7.800;2023-04-29T02:05:39;99233.06;;;15.42;nan
63556;BME280;49700;48.072;7.800;2023-04-29T02:08:05;99225.94;;;15.43;nan
63556;BME280;49700;48.072;7.800;2023-04-29T02:10:35;99233.91;;;15.43;nan
63556;BME280;49700;48.072;7.800;2023-04-29T02:13:16;99237.66;;;15.40;nan
63556;BME280;49700;48.072;7.800;2023-04-29T02:15:42;99233.34;;;15.39;nan
63556;BME280;49700;48.072;7.800;2023-04-29T02:18:08;99236.00;;;15.39;nan
63556;BME280;49700;48.072;7.800;2023-04-29T02:20:33;99240.41;;;15.39;nan
63556;BME280;49700;48.072;7.800;2023-04-29T02:22:59;99231.81;;;15.37;nan
63556;BME280;49700;48.072;7.800;2023-04-29T02:25:24;99234.97;;;15.31;nan
63556;BME280;49700;48.072;7.800;2023-04-29T02:27:49;99234.31;;;15.29;nan
63556;BME280;49700;48.072;7.800;2023-04-29T02:30:15;99242.63;;;15.24;nan
63556;BME280;49700;48.072;7.800;2023-04-29T02:32:41;99238.72;;;15.18;nan
63556;BME280;49700;48.072;7.800;2023-04-29T02:35:07;99242.75;;;15.13;nan
63556;BME280;49700;48.072;7.800;2023-04-29T02:37:33;99251.81;;;15.10;nan
63556;BME280;49700;48.072;7.800;2023-04-29T02:39:58;99245.69;;;15.10;nan
63556;BME280;49700;48.072;7.800;2023-04-29T02:42:24;99248.44;;;15.08;nan
63556;BME280;49700;48.072;7.800;2023-04-29T02:44:49;99246.50;;;15.10;nan
63556;BME280;49700;48.072;7.800;2023-04-29T02:47:15;99250.97;;;15.10;nan
63556;BME280;49700;48.072;7.800;2023-04-29T02:49:40;99249.28;;;15.09;nan
63556;BME280;49700;48.072;7.800;2023-04-29T02:52:05;99236.06;;;15.09;nan
63556;BME280;49700;48.072;7.800;2023-04-29T02:54:32;99232.84;;;15.05;nan
63556;BME280;49700;48.072;7.800;2023-04-29T02:56:57;99243.72;;;15.02;nan
63556;BME280;49700;48.072;7.800;2023-04-29T02:59:23;99239.53;;;14.99;nan
63556;BME280;49700;48.072;7.800;2023-04-29T03:01:48;99237.00;;;14.98;nan
63556;BME280;49700;48.072;7.800;2023-04-29T03:04:14;99239.53;;;14.99;nan
63556;BME280;49700;48.072;7.800;2023-04-29T03:06:39;99232.53;;;14.98;nan
63556;BME280;49700;48.072;7.800;2023-04-29T03:09:06;99233.66;;;14.96;nan
63556;BME280;49700;48.072;7.800;2023-04-29T03:11:31;99233.66;;;14.96;nan
63556;BME280;49700;48.072;7.800;2023-04-29T03:13:56;99233.78;;;14.94;nan
63556;BME280;49700;48.072;7.800;2023-04-29T03:16:22;99238.53;;;14.91;nan
63556;BME280;49700;48.072;7.800;2023-04-29T03:18:48;99234.72;;;14.83;nan
63556;BME280;49700;48.072;7.800;2023-04-29T03:21:14;99236.66;;;14.81;nan
63556;BME280;49700;48.072;7.800;2023-04-29T03:23:39;99242.94;;;14.80;nan
63556;BME280;49700;48.072;7.800;2023-04-29T03:26:06;99246.53;;;14.79;nan
63556;BME280;49700;48.072;7.800;2023-04-29T03:28:31;99245.00;;;14.77;nan
63556;BME280;49700;48.072;7.800;2023-04-29T03:30:57;99240.84;;;14.74;nan
63556;BME280;49700;48.072;7.800;2023-04-29T03:33:23;99250.53;;;14.74;nan
63556;BME280;49700;48.072;7.800;2023-04-29T03:35:49;99245.13;;;14.75;nan
63556;BME280;49700;48.072;7.800;2023-04-29T03:38:44;99238.19;;;14.74;nan
63556;BME280;49700;48.072;7.800;2023-04-29T03:41:09;99244.69;;;14.70;nan
63556;BME280;49700;48.072;7.800;2023-04-29T03:43:35;99250.25;;;14.67;nan
63556;BME280;49700;48.072;7.800;2023-04-29T03:46:00;99244.41;;;14.64;nan
63556;BME280;49700;48.072;7.800;2023-04-29T03:48:26;99243.53;;;14.63;nan
63556;BME280;49700;48.072;7.800;2023-04-29T03:50:51;99241.06;;;14.62;nan
63556;BME280;49700;48.072;7.800;2023-04-29T03:53:17;99244.78;;;14.59;nan
63556;BME280;49700;48.072;7.800;2023-04-29T03:55:43;99245.19;;;14.54;nan
63556;BME280;49700;48.072;7.800;2023-04-29T03:58:09;99244.59;;;14.51;nan
63556;BME280;49700;48.072;7.800;2023-04-29T04:00:34;99245.53;;;14.50;nan
63556;BME280;49700;48.072;7.800;2023-04-29T04:03:04;99247.34;;;14.49;nan
63556;BME280;49700;48.072;7.800;2023-04-29T04:05:29;99255.16;;;14.51;nan
63556;BME280;49700;48.072;7.800;2023-04-29T04:08:00;99260.44;;;14.51;nan
63556;BME280;49700;48.072;7.800;2023-04-29T04:10:28;99254.44;;;14.49;nan
63556;BME280;49700;48.072;7.800;2023-04-29T04:12:55;99242.31;;;14.46;nan
63556;BME280;49700;48.072;7.800;2023-04-29T04:15:20;99254.72;;;14.46;nan
63556;BME280;49700;48.072;7.800;2023-04-29T04:17:46;99254.00;;;14.44;nan
63556;BME280;49700;48.072;7.800;2023-04-29T04:20:12;99255.25;;;14.39;nan
63556;BME280;49700;48.072;7.800;2023-04-29T04:22:38;99257.28;;;14.36;nan
63556;BME280;49700;48.072;7.800;2023-04-29T04:25:25;99260.06;;;14.34;nan
63556;BME280;49700;48.072;7.800;2023-04-29T04:27:54;99266.44;;;14.32;nan
63556;BME280;49700;48.072;7.800;2023-04-29T04:30:30;99268.38;;;14.30;nan
63556;BME280;49700;48.072;7.800;2023-04-29T04:32:56;99271.13;;;14.28;nan
63556;BME280;49700;48.072;7.800;2023-04-29T04:35:21;99276.41;;;14.28;nan
63556;BME280;49700;48.072;7.800;2023-04-29T04:37:47;99278.94;;;14.30;nan
63556;BME280;49700;48.072;7.800;2023-04-29T04:40:13;99284.13;;;14.31;nan
63556;BME280;49700;48.072;7.800;2023-04-29T04:42:59;99292.88;;;14.32;nan
63556;BME280;49700;48.072;7.800;2023-04-29T04:45:27;99295.50;;;14.32;nan
63556;BME280;49700;48.072;7.800;2023-04-29T04:47:54;99297.56;;;14.28;nan
63556;BME280;49700;48.072;7.800;2023-04-29T04:50:20;99309.47;;;14.23;nan
63556;BME280;49700;48.072;7.800;2023-04-29T04:52:47;99310.00;;;14.16;nan
63556;BME280;49700;48.072;7.800;2023-04-29T04:55:29;99313.16;;;14.10;nan
63556;BME280;49700;48.072;7.800;2023-04-29T04:57:55;99318.28;;;14.12;nan
63556;BME280;49700;48.072;7.800;2023-04-29T05:00:21;99328.75;;;14.13;nan
63556;BME280;49700;48.072;7.800;2023-04-29T05:02:46;99327.66;;;14.16;nan
63556;BME280;49700;48.072;7.800;2023-04-29T05:05:12;99331.59;;;14.22;nan
63556;BME280;49700;48.072;7.800;2023-04-29T05:07:39;99328.56;;;14.26;nan
63556;BME280;49700;48.072;7.800;2023-04-29T05:10:05;99337.91;;;14.30;nan
63556;BME280;49700;48.072;7.800;2023-04-29T05:12:37;99336.56;;;14.36;nan
63556;BME280;49700;48.072;7.800;2023-04-29T05:15:03;99343.13;;;14.42;nan
63556;BME280;49700;48.072;7.800;2023-04-29T05:17:33;99350.56;;;14.48;nan
63556;BME280;49700;48.072;7.800;2023-04-29T05:20:00;99349.81;;;14.57;nan
63556;BME280;49700;48.072;7.800;2023-04-29T05:22:25;99351.81;;;14.65;nan
63556;BME280;49700;48.072;7.800;2023-04-29T05:24:51;99352.81;;;14.73;nan
63556;BME280;49700;48.072;7.800;2023-04-29T05:27:18;99351.19;;;14.82;nan
63556;BME280;49700;48.072;7.800;2023-04-29T05:29:44;99355.00;;;14.89;nan
63556;BME280;49700;48.072;7.800;2023-04-29T05:32:10;99353.97;;;15.01;nan
63556;BME280;49700;48.072;7.800;2023-04-29T05:34:37;99352.94;;;15.23;nan
63556;BME280;49700;48.072;7.800;2023-04-29T05:37:03;99356.69;;;15.61;nan
63556;BME280;49700;48.072;7.800;2023-04-29T05:39:30;99349.78;;;15.99;nan
63556;BME280;49700;48.072;7.800;2023-04-29T05:42:07;99356.75;;;16.20;nan
63556;BME280;49700;48.072;7.800;2023-04-29T05:44:40;99364.16;;;16.26;nan
63556;BME280;49700;48.072;7.800;2023-04-29T05:47:05;99369.19;;;16.29;nan
63556;BME280;49700;48.072;7.800;2023-04-29T05:49:31;99377.53;;;16.24;nan
63556;BME280;49700;48.072;7.800;2023-04-29T05:51:56;99383.53;;;16.17;nan
63556;BME280;49700;48.072;7.800;2023-04-29T05:54:21;99387.03;;;16.07;nan
63556;BME280;49700;48.072;7.800;2023-04-29T05:56:47;99393.56;;;15.93;nan
63556;BME280;49700;48.072;7.800;2023-04-29T05:59:12;99398.13;;;15.82;nan
63556;BME280;49700;48.072;7.800;2023-04-29T06:01:38;99400.63;;;15.74;nan
63556;BME280;49700;48.072;7.800;2023-04-29T06:04:04;99409.91;;;15.68;nan
63556;BME280;49700;48.072;7.800;2023-04-29T06:06:48;99407.66;;;15.63;nan
63556;BME280;49700;48.072;7.800;2023-04-29T06:09:40;99416.59;;;15.62;nan
63556;BME280;49700;48.072;7.800;2023-04-29T06:12:09;99412.13;;;15.63;nan
63556;BME280;49700;48.072;7.800;2023-04-29T06:14:34;99411.72;;;15.67;nan
63556;BME280;49700;48.072;7.800;2023-04-29T06:17:00;99418.63;;;15.80;nan
63556;BME280;49700;48.072;7.800;2023-04-29T06:19:26;99413.94;;;16.22;nan
63556;BME280;49700;48.072;7.800;2023-04-29T06:21:52;99417.16;;;16.84;nan
63556;BME280;49700;48.072;7.800;2023-04-29T06:24:18;99412.88;;;17.20;nan
63556;BME280;49700;48.072;7.800;2023-04-29T06:26:44;99418.84;;;17.32;nan
63556;BME280;49700;48.072;7.800;2023-04-29T06:29:10;99418.44;;;17.27;nan
63556;BME280;49700;48.072;7.800;2023-04-29T06:31:35;99419.72;;;17.23;nan
63556;BME280;49700;48.072;7.800;2023-04-29T06:34:02;99426.19;;;17.11;nan
63556;BME280;49700;48.072;7.800;2023-04-29T06:36:28;99427.59;;;16.95;nan
63556;BME280;49700;48.072;7.800;2023-04-29T06:39:10;99428.06;;;16.81;nan
63556;BME280;49700;48.072;7.800;2023-04-29T06:41:55;99424.56;;;16.80;nan
63556;BME280;49700;48.072;7.800;2023-04-29T06:44:42;99420.94;;;16.81;nan
63556;BME280;49700;48.072;7.800;2023-04-29T06:47:26;99417.56;;;16.89;nan
63556;BME280;49700;48.072;7.800;2023-04-29T06:50:11;99421.16;;;17.08;nan
63556;BME280;49700;48.072;7.800;2023-04-29T06:52:36;99422.28;;;17.15;nan
63556;BME280;49700;48.072;7.800;2023-04-29T06:55:02;99428.13;;;17.18;nan
63556;BME280;49700;48.072;7.800;2023-04-29T06:57:28;99425.47;;;17.09;nan
63556;BME280;49700;48.072;7.800;2023-04-29T06:59:53;99427.19;;;17.00;nan
63556;BME280;49700;48.072;7.800;2023-04-29T07:02:18;99418.94;;;17.03;nan
63556;BME280;49700;48.072;7.800;2023-04-29T07:04:45;99420.44;;;17.15;nan
63556;BME280;49700;48.072;7.800;2023-04-29T07:07:12;99428.47;;;17.33;nan
63556;BME280;49700;48.072;7.800;2023-04-29T07:09:38;99427.75;;;17.41;nan
63556;BME280;49700;48.072;7.800;2023-04-29T07:12:03;99424.47;;;17.57;nan
63556;BME280;49700;48.072;7.800;2023-04-29T07:14:29;99424.69;;;18.19;nan
63556;BME280;49700;48.072;7.800;2023-04-29T07:19:40;99431.69;;;19.17;nan
63556;BME280;49700;48.072;7.800;2023-04-29T07:22:06;99435.00;;;19.45;nan
63556;BME280;49700;48.072;7.800;2023-04-29T07:24:31;99438.50;;;19.46;nan
63556;BME280;49700;48.072;7.800;2023-04-29T07:26:56;99439.53;;;19.53;nan
63556;BME280;49700;48.072;7.800;2023-04-29T07:29:22;99445.97;;;19.42;nan
63556;BME280;49700;48.072;7.800;2023-04-29T07:31:48;99448.97;;;19.13;nan
63556;BME280;49700;48.072;7.800;2023-04-29T07:34:13;99450.00;;;18.76;nan
63556;BME280;49700;48.072;7.800;2023-04-29T07:36:38;99444.63;;;18.50;nan
63556;BME280;49700;48.072;7.800;2023-04-29T07:39:04;99449.41;;;18.47;nan
63556;BME280;49700;48.072;7.800;2023-04-29T07:41:30;99457.53;;;18.45;nan
63556;BME280;49700;48.072;7.800;2023-04-29T07:43:55;99457.38;;;18.47;nan
63556;BME280;49700;48.072;7.800;2023-04-29T07:46:21;99449.69;;;18.44;nan
63556;BME280;49700;48.072;7.800;2023-04-29T07:48:46;99453.41;;;18.33;nan
63556;BME280;49700;48.072;7.800;2023-04-29T07:51:12;99459.44;;;18.35;nan
63556;BME280;49700;48.072;7.800;2023-04-29T07:53:40;99457.38;;;18.47;nan
63556;BME280;49700;48.072;7.800;2023-04-29T07:56:07;99463.00;;;18.44;nan
63556;BME280;49700;48.072;7.800;2023-04-29T07:58:33;99457.09;;;18.50;nan
63556;BME280;49700;48.072;7.800;2023-04-29T08:01:16;99465.16;;;18.58;nan
63556;BME280;49700;48.072;7.800;2023-04-29T08:03:42;99469.47;;;18.59;nan
63556;BME280;49700;48.072;7.800;2023-04-29T08:06:10;99469.78;;;18.56;nan
63556;BME280;49700;48.072;7.800;2023-04-29T08:08:35;99466.72;;;18.51;nan
63556;BME280;49700;48.072;7.800;2023-04-29T08:11:01;99466.97;;;18.40;nan
63556;BME280;49700;48.072;7.800;2023-04-29T08:13:27;99466.19;;;18.29;nan
63556;BME280;49700;48.072;7.800;2023-04-29T08:15:52;99475.75;;;18.22;nan
63556;BME280;49700;48.072;7.800;2023-04-29T08:18:19;99479.09;;;18.24;nan
63556;BME280;49700;48.072;7.800;2023-04-29T08:20:46;99481.16;;;18.30;nan
63556;BME280;49700;48.072;7.800;2023-04-29T08:23:12;99476.22;;;18.35;nan
63556;BME280;49700;48.072;7.800;2023-04-29T08:25:40;99472.19;;;18.49;nan
63556;BME280;49700;48.072;7.800;2023-04-29T08:28:07;99471.09;;;18.88;nan
63556;BME280;49700;48.072;7.800;2023-04-29T08:30:36;99476.09;;;19.43;nan
63556;BME280;49700;48.072;7.800;2023-04-29T08:33:02;99471.16;;;19.74;nan
63556;BME280;49700;48.072;7.800;2023-04-29T08:35:27;99474.81;;;19.81;nan
63556;BME280;49700;48.072;7.800;2023-04-29T08:37:52;99470.16;;;19.75;nan
63556;BME280;49700;48.072;7.800;2023-04-29T08:40:18;99466.44;;;19.68;nan
63556;BME280;49700;48.072;7.800;2023-04-29T08:42:44;99473.16;;;19.54;nan
63556;BME280;49700;48.072;7.800;2023-04-29T08:45:09;99465.13;;;19.46;nan
63556;BME280;49700;48.072;7.800;2023-04-29T08:47:35;99465.25;;;19.36;nan
63556;BME280;49700;48.072;7.800;2023-04-29T08:50:03;99474.41;;;19.34;nan
63556;BME280;49700;48.072;7.800;2023-04-29T08:52:32;99467.56;;;19.31;nan
63556;BME280;49700;48.072;7.800;2023-04-29T08:54:59;99463.56;;;19.35;nan
63556;BME280;49700;48.072;7.800;2023-04-29T08:57:27;99464.03;;;19.31;nan
63556;BME280;49700;48.072;7.800;2023-04-29T08:59:54;99466.09;;;19.37;nan
63556;BME280;49700;48.072;7.800;2023-04-29T09:02:19;99456.81;;;19.49;nan
63556;BME280;49700;48.072;7.800;2023-04-29T09:05:09;99463.69;;;19.60;nan
63556;BME280;49700;48.072;7.800;2023-04-29T09:07:39;99457.63;;;19.67;nan
63556;BME280;49700;48.072;7.800;2023-04-29T09:10:05;99464.31;;;19.72;nan
63556;BME280;49700;48.072;7.800;2023-04-29T09:12:31;99458.00;;;19.81;nan
63556;BME280;49700;48.072;7.800;2023-04-29T09:14:57;99465.81;;;19.74;nan
63556;BME280;49700;48.072;7.800;2023-04-29T09:17:41;99459.19;;;19.60;nan
63556;BME280;49700;48.072;7.800;2023-04-29T09:22:48;99464.53;;;19.60;nan
63556;BME280;49700;48.072;7.800;2023-04-29T09:25:14;99461.88;;;19.60;nan
63556;BME280;49700;48.072;7.800;2023-04-29T09:27:39;99466.19;;;19.53;nan
63556;BME280;49700;48.072;7.800;2023-04-29T09:30:05;99471.94;;;19.40;nan
63556;BME280;49700;48.072;7.800;2023-04-29T09:32:31;99463.44;;;19.37;nan
63556;BME280;49700;48.072;7.800;2023-04-29T09:34:56;99463.13;;;19.40;nan
63556;BME280;49700;48.072;7.800;2023-04-29T09:37:26;99464.25;;;19.11;nan
63556;BME280;49700;48.072;7.800;2023-04-29T09:39:53;99465.03;;;19.04;nan
63556;BME280;49700;48.072;7.800;2023-04-29T09:42:18;99463.03;;;19.06;nan
63556;BME280;49700;48.072;7.800;2023-04-29T09:44:44;99458.91;;;19.11;nan
63556;BME280;49700;48.072;7.800;2023-04-29T09:47:10;99453.38;;;19.31;nan
63556;BME280;49700;48.072;7.800;2023-04-29T09:49:39;99461.00;;;19.52;nan
63556;BME280;49700;48.072;7.800;2023-04-29T09:52:10;99466.88;;;19.55;nan
63556;BME280;49700;48.072;7.800;2023-04-29T09:54:37;99454.47;;;19.46;nan
63556;BME280;49700;48.072;7.800;2023-04-29T09:57:04;99455.13;;;19.40;nan
63556;BME280;49700;48.072;7.800;2023-04-29T09:59:31;99457.00;;;19.21;nan
63556;BME280;49700;48.072;7.800;2023-04-29T10:01:58;99462.66;;;19.18;nan
63556;BME280;49700;48.072;7.800;2023-04-29T10:04:26;99463.84;;;19.24;nan
63556;BME280;49700;48.072;7.800;2023-04-29T10:06:55;99452.78;;;19.37;nan
63556;BME280;49700;48.072;7.800;2023-04-29T10:09:22;99455.78;;;19.68;nan
63556;BME280;49700;48.072;7.800;2023-04-29T10:11:49;99457.69;;;19.84;nan
63556;BME280;49700;48.072;7.800;2023-04-29T10:14:17;99452.53;;;19.82;nan
63556;BME280;49700;48.072;7.800;2023-04-29T10:17:07;99455.16;;;19.74;nan
63556;BME280;49700;48.072;7.800;2023-04-29T10:19:40;99451.88;;;19.62;nan
63556;BME280;49700;48.072;7.800;2023-04-29T10:22:11;99456.63;;;19.42;nan
63556;BME280;49700;48.072;7.800;2023-04-29T10:24:41;99451.53;;;19.57;nan
63556;BME280;49700;48.072;7.800;2023-04-29T10:27:09;99449.88;;;19.82;nan
63556;BME280;49700;48.072;7.800;2023-04-29T10:29:37;99463.97;;;20.17;nan
63556;BME280;49700;48.072;7.800;2023-04-29T10:32:06;99446.31;;;20.32;nan
63556;BME280;49700;48.072;7.800;2023-04-29T10:34:35;99443.22;;;20.53;nan
63556;BME280;49700;48.072;7.800;2023-04-29T10:37:01;99436.66;;;20.48;nan
63556;BME280;49700;48.072;7.800;2023-04-29T10:40:00;99433.56;;;20.69;nan
63556;BME280;49700;48.072;7.800;2023-04-29T10:42:36;99435.19;;;20.78;nan
63556;BME280;49700;48.072;7.800;2023-04-29T10:50:59;99439.03;;;20.67;nan
63556;BME280;49700;48.072;7.800;2023-04-29T10:53:26;99441.22;;;20.80;nan
63556;BME280;49700;48.072;7.800;2023-04-29T10:56:02;99436.88;;;20.95;nan
63556;BME280;49700;48.072;7.800;2023-04-29T10:58:40;99438.53;;;21.05;nan
63556;BME280;49700;48.072;7.800;2023-04-29T11:01:13;99433.50;;;21.18;nan
63556;BME280;49700;48.072;7.800;2023-04-29T11:06:14;99433.34;;;21.03;nan
63556;BME280;49700;48.072;7.800;2023-04-29T11:08:40;99431.03;;;20.84;nan
63556;BME280;49700;48.072;7.800;2023-04-29T11:11:06;99424.72;;;20.85;nan
63556;BME280;49700;48.072;7.800;2023-04-29T11:13:37;99428.53;;;20.98;nan
63556;BME280;49700;48.072;7.800;2023-04-29T11:16:03;99425.16;;;21.05;nan
63556;BME280;49700;48.072;7.800;2023-04-29T11:18:29;99430.84;;;21.10;nan
63556;BME280;49700;48.072;7.800;2023-04-29T11:23:38;99422.59;;;21.28;nan
63556;BME280;49700;48.072;7.800;2023-04-29T11:26:09;99425.94;;;21.38;nan
63556;BME280;49700;48.072;7.800;2023-04-29T11:28:34;99422.78;;;21.42;nan
63556;BME280;49700;48.072;7.800;2023-04-29T11:31:00;99425.41;;;21.51;nan
63556;BME280;49700;48.072;7.800;2023-04-29T11:33:30;99420.94;;;21.43;nan
63556;BME280;49700;48.072;7.800;2023-04-29T11:35:57;99411.78;;;21.21;nan
63556;BME280;49700;48.072;7.800;2023-04-29T11:38:26;99424.00;;;21.07;nan
63556;BME280;49700;48.072;7.800;2023-04-29T11:40:53;99427.66;;;21.06;nan
63556;BME280;49700;48.072;7.800;2023-04-29T11:43:21;99420.50;;;21.07;nan
63556;BME280;49700;48.072;7.800;2023-04-29T11:45:47;99418.31;;;21.10;nan
63556;BME280;49700;48.072;7.800;2023-04-29T11:48:22;99419.63;;;21.23;nan
63556;BME280;49700;48.072;7.800;2023-04-29T11:50:50;99426.09;;;21.36;nan
63556;BME280;49700;48.072;7.800;2023-04-29T11:53:20;99423.44;;;21.36;nan
63556;BME280;49700;48.072;7.800;2023-04-29T11:55:46;99429.13;;;21.33;nan
63556;BME280;49700;48.072;7.800;2023-04-29T11:58:14;99424.97;;;21.39;nan
63556;BME280;49700;48.072;7.800;2023-04-29T12:00:40;99418.59;;;21.40;nan
63556;BME280;49700;48.072;7.800;2023-04-29T12:03:13;99421.59;;;21.37;nan
63556;BME280;49700;48.072;7.800;2023-04-29T12:05:49;99422.75;;;21.34;nan
63556;BME280;49700;48.072;7.800;2023-04-29T12:08:19;99413.09;;;21.33;nan
63556;BME280;49700;48.072;7.800;2023-04-29T12:10:46;99413.91;;;21.34;nan
63556;BME280;49700;48.072;7.800;2023-04-29T12:13:11;99411.59;;;21.31;nan
63556;BME280;49700;48.072;7.800;2023-04-29T12:15:37;99414.44;;;21.21;nan
63556;BME280;49700;48.072;7.800;2023-04-29T12:18:03;99409.59;;;21.16;nan
63556;BME280;49700;48.072;7.800;2023-04-29T12:20:28;99421.31;;;21.15;nan
63556;BME280;49700;48.072;7.800;2023-04-29T12:22:54;99418.97;;;21.12;nan
63556;BME280;49700;48.072;7.800;2023-04-29T12:25:24;99417.97;;;21.13;nan
63556;BME280;49700;48.072;7.800;2023-04-29T12:27:49;99415.13;;;21.15;nan
63556;BME280;49700;48.072;7.800;2023-04-29T12:30:14;99421.31;;;21.07;nan
63556;BME280;49700;48.072;7.800;2023-04-29T12:32:40;99413.84;;;20.94;nan
63556;BME280;49700;48.072;7.800;2023-04-29T12:35:13;99427.50;;;20.99;nan
63556;BME280;49700;48.072;7.800;2023-04-29T12:37:40;99419.47;;;21.08;nan
63556;BME280;49700;48.072;7.800;2023-04-29T12:40:06;99423.66;;;21.10;nan
63556;BME280;49700;48.072;7.800;2023-04-29T12:42:32;99426.00;;;21.05;nan
63556;BME280;49700;48.072;7.800;2023-04-29T12:45:00;99430.34;;;20.98;nan
63556;BME280;49700;48.072;7.800;2023-04-29T12:47:31;99433.19;;;20.88;nan
63556;BME280;49700;48.072;7.800;2023-04-29T12:49:57;99432.03;;;20.83;nan
63556;BME280;49700;48.072;7.800;2023-04-29T12:52:23;99432.53;;;20.86;nan
63556;BME280;49700;48.072;7.800;2023-04-29T12:54:48;99433.88;;;20.90;nan
63556;BME280;49700;48.072;7.800;2023-04-29T12:57:14;99431.84;;;20.92;nan
63556;BME280;49700;48.072;7.800;2023-04-29T12:59:39;99431.53;;;20.95;nan
63556;BME280;49700;48.072;7.800;2023-04-29T13:02:05;99426.69;;;20.99;nan
63556;BME280;49700;48.072;7.800;2023-04-29T13:04:30;99433.84;;;21.07;nan
63556;BME280;49700;48.072;7.800;2023-04-29T13:06:55;99427.16;;;21.11;nan
63556;BME280;49700;48.072;7.800;2023-04-29T13:09:25;99424.31;;;21.12;nan
63556;BME280;49700;48.072;7.800;2023-04-29T13:11:50;99429.34;;;21.07;nan
63556;BME280;49700;48.072;7.800;2023-04-29T13:14:16;99426.69;;;20.99;nan
63556;BME280;49700;48.072;7.800;2023-04-29T13:16:43;99434.50;;;20.92;nan
63556;BME280;49700;48.072;7.800;2023-04-29T13:19:08;99438.88;;;20.85;nan
63556;BME280;49700;48.072;7.800;2023-04-29T13:21:34;99432.88;;;20.83;nan
63556;BME280;49700;48.072;7.800;2023-04-29T13:23:59;99434.53;;;20.84;nan
63556;BME280;49700;48.072;7.800;2023-04-29T13:26:25;99431.22;;;20.90;nan
63556;BME280;49700;48.072;7.800;2023-04-29T13:28:51;99433.88;;;20.90;nan
63556;BME280;49700;48.072;7.800;2023-04-29T13:31:16;99429.69;;;20.88;nan
63556;BME280;49700;48.072;7.800;2023-04-29T13:33:42;99431.84;;;20.84;nan
63556;BME280;49700;48.072;7.800;2023-04-29T13:36:08;99433.88;;;20.74;nan
63556;BME280;49700;48.072;7.800;2023-04-29T13:38:33;99433.38;;;20.70;nan
63556;BME280;49700;48.072;7.800;2023-04-29T13:40:59;99443.22;;;20.70;nan
63556;BME280;49700;48.072;7.800;2023-04-29T13:43:24;99441.91;;;20.66;nan